Time;durP1;ratioP1;P1;durP2;ratioP2;P2;SDS_P1;SDS_P2;PMS_P1;PMS_P2;Temp;Humidity;BMP_temperature;BMP_pressure;BME280_temperature;BME280_humidity;BME280_pressure;Samples;Min_cycle;Max_cycle;Signal;HPM_P1;HPM_P2
2022/03/04 00:01:54;;;;;;;9.88;5.30;;;5.10;52.20;;;3.38;54.54;101895.41;8463732;28;20119;-82
2022/03/04 00:06:16;;;;;;;7.22;4.88;;;5.00;52.00;;;3.23;54.61;101873.09;8464367;27;20118;-82
2022/03/04 00:10:38;;;;;;;8.30;4.90;;;4.90;52.10;;;2.98;54.05;101829.38;8472613;28;20131;-82
2022/03/04 00:15:00;;;;;;;10.38;6.15;;;5.20;52.10;;;3.41;54.04;101911.72;8477540;27;20118;-82
2022/03/04 00:19:22;;;;;;;9.65;5.45;;;5.00;52.30;;;3.15;54.69;101862.81;8474325;28;20110;-82
2022/03/04 00:23:44;;;;;;;11.75;6.03;;;5.10;52.00;;;3.14;54.38;101860.28;8472720;28;20118;-82
2022/03/04 00:28:06;;;;;;;8.57;4.90;;;5.10;51.90;;;3.39;54.65;101902.28;8453906;27;20126;-82
2022/03/04 00:32:28;;;;;;;9.23;5.20;;;5.20;51.90;;;3.30;54.40;101896.28;8469360;28;20130;-82
2022/03/04 00:36:49;;;;;;;7.35;5.47;;;5.20;52.20;;;3.24;54.61;101901.50;8464658;27;20118;-82
2022/03/04 00:41:11;;;;;;;12.57;6.55;;;5.10;51.90;;;3.30;54.76;101923.84;8468811;28;20125;-82
2022/03/04 00:45:33;;;;;;;15.20;7.40;;;5.10;51.70;;;3.22;54.73;101910.13;8477514;27;20567;-81
2022/03/04 00:49:55;;;;;;;13.65;7.93;;;5.10;52.00;;;3.15;54.69;101908.44;8450626;27;20121;-81
2022/03/04 00:54:17;;;;;;;14.13;7.55;;;5.10;52.10;;;3.24;54.64;101918.69;8449700;27;20118;-82
2022/03/04 00:58:40;;;;;;;13.98;7.28;;;4.90;52.10;;;3.21;54.65;101916.13;8473844;27;20065;-82
2022/03/04 01:03:04;;;;;;;17.17;9.38;;;5.10;52.00;;;3.28;54.67;101949.66;8492058;27;20126;-82
2022/03/04 01:07:26;;;;;;;19.83;11.10;;;5.10;52.20;;;3.03;54.54;101888.72;8470941;27;20118;-82
2022/03/04 01:11:48;;;;;;;16.05;9.45;;;4.90;52.30;;;3.21;54.60;101919.56;8475733;27;20118;-82
2022/03/04 01:16:09;;;;;;;19.17;9.77;;;5.00;52.50;;;3.25;54.38;101930.75;8454295;27;20496;-81
2022/03/04 01:20:32;;;;;;;19.25;11.23;;;5.10;52.10;;;3.29;54.57;101927.28;8462072;27;20389;-81
2022/03/04 01:24:53;;;;;;;23.50;11.95;;;5.10;52.10;;;3.04;54.58;101891.28;8475071;27;20115;-82
2022/03/04 01:29:15;;;;;;;21.95;10.63;;;5.00;52.30;;;3.23;54.69;101917.84;8481593;27;20118;-82
2022/03/04 01:33:37;;;;;;;22.83;10.57;;;5.00;52.00;;;2.85;54.75;101843.22;8496208;27;20125;-81
2022/03/04 01:37:58;;;;;;;22.95;11.98;;;5.00;52.20;;;3.27;54.62;101916.97;8498860;27;20406;-81
2022/03/04 01:42:20;;;;;;;24.10;10.57;;;5.00;52.30;;;3.21;54.99;101900.66;8483212;27;20114;-82
2022/03/04 01:46:42;;;;;;;26.00;11.32;;;5.10;52.10;;;3.28;54.76;101908.34;8483760;27;20110;-82
2022/03/04 01:51:04;;;;;;;20.80;10.75;;;5.10;52.10;;;2.88;54.63;101832.88;8468204;27;20114;-82
2022/03/04 01:55:25;;;;;;;20.63;10.18;;;5.10;52.00;;;3.35;54.67;101901.44;8491730;27;20038;-82
2022/03/04 01:59:48;;;;;;;21.60;10.32;;;5.20;52.00;;;3.37;54.62;101896.25;8470706;27;20039;-82
2022/03/04 02:04:10;;;;;;;25.42;11.63;;;5.20;52.10;;;3.49;54.83;101922.00;8466129;27;20484;-82
2022/03/04 02:08:31;;;;;;;18.75;10.77;;;5.40;52.20;;;3.54;55.10;101909.91;8490414;27;20137;-82
2022/03/04 02:12:53;;;;;;;20.05;10.23;;;5.30;52.00;;;3.32;54.89;101879.09;8475503;27;20478;-82
2022/03/04 02:17:15;;;;;;;14.50;9.65;;;5.20;52.00;;;3.30;54.76;101874.78;8469020;27;20483;-81
2022/03/04 02:21:54;;;;;;;16.17;9.40;;;5.30;52.00;;;3.06;54.79;101825.03;8482257;27;20122;-82
2022/03/04 02:26:16;;;;;;;15.80;11.00;;;5.30;52.00;;;3.41;54.76;101891.06;8452483;27;20126;-82
2022/03/04 02:30:37;;;;;;;14.57;9.57;;;5.30;52.10;;;3.41;54.74;101895.38;8459794;27;20110;-81
2022/03/04 02:35:01;;;;;;;14.10;8.20;;;5.20;52.10;;;3.38;55.04;101880.75;8489773;27;20110;-82
2022/03/04 02:39:23;;;;;;;11.35;8.00;;;5.30;52.10;;;3.48;54.67;101895.34;8490087;27;20027;-81
2022/03/04 02:43:45;;;;;;;11.05;6.85;;;5.30;52.20;;;3.47;54.88;101892.75;8461224;27;20125;-81
2022/03/04 02:48:06;;;;;;;10.93;6.50;;;5.30;52.10;;;3.47;54.57;101901.34;8461080;27;20468;-81
2022/03/04 02:52:28;;;;;;;10.68;6.70;;;5.30;52.00;;;3.37;54.80;101878.19;8481913;27;20114;-81
2022/03/04 02:56:50;;;;;;;10.98;7.60;;;5.40;52.00;;;3.66;54.86;101921.88;8473361;27;20118;-83
2022/03/04 03:01:12;;;;;;;9.82;6.82;;;5.40;52.00;;;3.65;54.85;101917.59;8471730;27;20046;-81
2022/03/04 03:05:33;;;;;;;10.95;6.72;;;5.20;51.90;;;3.58;54.73;101909.03;8466162;27;20559;-82
2022/03/04 03:09:55;;;;;;;14.10;7.85;;;5.40;52.00;;;3.57;54.83;101912.47;8479597;27;20127;-82
2022/03/04 03:14:17;;;;;;;9.55;6.53;;;5.40;52.10;;;3.07;55.01;101831.91;8461894;27;20122;-82
2022/03/04 03:18:39;;;;;;;11.90;6.07;;;5.40;52.20;;;3.69;54.81;101922.69;8477161;27;20035;-82
2022/03/04 03:23:00;;;;;;;11.93;7.10;;;5.40;52.20;;;3.61;54.93;101921.91;8487782;27;20126;-82
2022/03/04 03:27:22;;;;;;;10.23;6.97;;;5.40;52.00;;;3.21;54.83;101836.13;8474051;27;20460;-82
2022/03/04 03:31:44;;;;;;;14.63;8.00;;;5.50;52.00;;;3.39;54.74;101856.66;8451990;27;20116;-82
2022/03/04 03:36:06;;;;;;;14.55;7.15;;;5.50;52.10;;;3.63;55.09;101907.25;8469665;27;20117;-82
2022/03/04 03:40:27;;;;;;;13.55;7.07;;;5.50;52.00;;;3.24;55.06;101841.25;8479964;27;20035;-82
2022/03/04 03:44:49;;;;;;;13.60;7.72;;;5.50;52.10;;;3.76;54.94;101913.19;8469602;27;20134;-82
2022/03/04 03:49:11;;;;;;;14.57;7.03;;;5.40;52.00;;;3.73;54.87;101923.56;8464570;27;20126;-82
2022/03/04 03:53:33;;;;;;;13.75;8.38;;;5.60;52.00;;;3.74;54.95;101904.59;8453422;27;20035;-82
2022/03/04 03:57:55;;;;;;;12.88;7.10;;;5.60;52.00;;;3.31;55.18;101837.78;8447039;27;20046;-82
2022/03/04 04:02:17;;;;;;;13.95;7.20;;;5.60;52.00;;;3.70;55.29;101892.56;8464738;28;20587;-82
2022/03/04 04:06:43;;;;;;;14.38;8.20;;;5.60;52.00;;;3.84;55.03;101920.91;8459673;27;20114;-82
2022/03/04 04:11:04;;;;;;;18.95;8.90;;;5.80;52.10;;;3.64;54.85;101885.72;8466681;27;20129;-81
2022/03/04 04:15:26;;;;;;;19.92;8.82;;;5.60;52.00;;;3.87;54.70;101929.47;8466465;27;20126;-81
2022/03/04 04:19:48;;;;;;;14.07;7.80;;;5.60;51.90;;;3.79;55.21;101913.16;8489231;27;20037;-82
2022/03/04 04:24:10;;;;;;;11.43;7.05;;;5.50;51.90;;;3.89;54.92;101920.00;8470406;27;20486;-81
2022/03/04 04:28:33;;;;;;;13.55;6.78;;;5.60;52.00;;;3.72;54.97;101881.34;8453894;27;20122;-82
2022/03/04 04:32:54;;;;;;;11.43;6.97;;;5.70;51.90;;;3.91;54.90;101912.19;8483050;27;20135;-81
2022/03/04 04:37:16;;;;;;;11.60;6.15;;;5.70;51.90;;;3.85;55.11;101892.44;8494025;27;20119;-82
2022/03/04 04:41:38;;;;;;;12.13;6.32;;;5.60;51.70;;;3.70;54.94;101867.59;8490976;27;20735;-81
2022/03/04 04:46:00;;;;;;;11.75;6.40;;;5.60;51.60;;;3.71;54.87;101878.78;8464989;27;20599;-81
2022/03/04 04:50:21;;;;;;;12.80;6.07;;;5.50;51.50;;;3.75;55.10;101893.38;8460304;27;20571;-82
2022/03/04 04:54:43;;;;;;;12.20;7.07;;;5.60;51.50;;;3.78;54.89;101906.31;8478634;27;20031;-82
2022/03/04 04:59:05;;;;;;;12.88;6.63;;;5.50;51.40;;;3.60;55.06;101881.47;8484414;27;20057;-81
2022/03/04 05:03:27;;;;;;;15.80;6.53;;;5.50;51.40;;;3.66;54.99;101894.31;8470530;27;20027;-82
2022/03/04 05:07:49;;;;;;;11.20;6.63;;;5.30;51.20;;;3.61;55.15;101909.00;8473881;27;20110;-82
2022/03/04 05:12:11;;;;;;;9.82;6.07;;;5.40;51.30;;;3.51;55.03;101897.00;8455639;27;20114;-82
2022/03/04 05:16:32;;;;;;;11.73;6.60;;;5.40;51.30;;;3.44;54.89;101890.19;8459648;27;20544;-82
2022/03/04 05:20:54;;;;;;;10.88;6.38;;;5.40;51.20;;;3.43;54.80;101904.81;8478682;27;20488;-82
2022/03/04 05:25:16;;;;;;;12.60;6.38;;;5.20;51.10;;;3.19;54.98;101866.28;8467501;27;20123;-82
2022/03/04 05:29:37;;;;;;;11.10;6.85;;;5.10;51.10;;;3.29;54.88;101902.34;8450397;27;20118;-82
2022/03/04 05:33:59;;;;;;;10.68;5.68;;;5.20;51.10;;;3.08;54.78;101877.50;8458584;27;20117;-82
2022/03/04 05:38:21;;;;;;;11.70;6.35;;;5.20;51.10;;;3.30;54.71;101916.09;8469333;27;20036;-82
2022/03/04 05:42:42;;;;;;;10.88;5.40;;;5.10;51.10;;;3.28;54.73;101928.16;8470102;27;20545;-81
2022/03/04 05:47:05;;;;;;;16.85;6.95;;;4.90;51.30;;;3.31;54.82;101953.94;8465811;27;20035;-81
2022/03/04 05:51:26;;;;;;;11.70;6.40;;;5.00;51.00;;;2.92;54.95;101893.94;8475279;27;20110;-82
2022/03/04 05:55:48;;;;;;;13.48;6.43;;;5.00;51.00;;;3.18;54.57;101945.41;8472208;27;20690;-82
2022/03/04 06:00:11;;;;;;;12.85;7.00;;;4.90;51.00;;;2.92;54.58;101919.72;8452716;27;20051;-82
2022/03/04 06:04:32;;;;;;;15.30;6.35;;;4.90;51.10;;;3.09;54.44;101966.09;8441318;27;20392;-82
2022/03/04 06:08:54;;;;;;;11.23;5.68;;;4.80;51.10;;;2.89;54.82;101937.81;8458435;27;20407;-82
2022/03/04 06:13:16;;;;;;;11.80;6.00;;;4.80;51.20;;;3.07;55.21;101966.09;8442607;27;20487;-82
2022/03/04 06:17:37;;;;;;;9.68;5.88;;;4.80;51.30;;;2.79;55.05;101930.97;8441495;27;20041;-81
2022/03/04 06:21:59;;;;;;;11.80;5.72;;;4.60;51.30;;;2.98;54.57;101966.13;8438163;27;20027;-81
2022/03/04 06:26:21;;;;;;;8.63;5.13;;;4.70;51.40;;;2.97;54.72;101966.13;8459858;27;20027;-82
2022/03/04 06:30:43;;;;;;;11.88;5.95;;;4.60;51.40;;;3.04;55.11;101976.44;8443396;27;20518;-81
2022/03/04 06:35:04;;;;;;;9.27;5.43;;;4.70;51.60;;;2.99;54.72;101970.41;8480196;27;20128;-79
2022/03/04 06:39:26;;;;;;;10.57;5.18;;;4.80;51.70;;;3.09;55.02;101994.47;8489605;27;20488;-80
2022/03/04 06:43:48;;;;;;;14.23;5.43;;;4.70;51.80;;;3.10;55.19;101984.13;8482585;27;20536;-80
2022/03/04 06:48:12;;;;;;;10.40;5.20;;;4.80;51.90;;;2.98;55.14;101960.97;8505867;27;20672;-83
2022/03/04 06:52:34;;;;;;;8.27;5.45;;;4.80;52.20;;;3.13;54.86;101991.00;8458125;27;20030;-80
2022/03/04 06:56:56;;;;;;;10.45;4.28;;;4.70;52.10;;;2.96;55.03;101954.97;8478724;27;20041;-79
2022/03/04 07:01:18;;;;;;;8.68;4.78;;;5.30;52.50;;;3.06;55.11;101972.13;8466193;27;20042;-81
2022/03/04 07:05:40;;;;;;;10.10;3.88;;;4.90;52.40;;;3.15;55.21;101975.53;8436607;27;20027;-79
2022/03/04 07:10:03;;;;;;;5.38;3.20;;;4.80;52.30;;;3.13;55.13;101959.19;8435923;27;20389;-81
2022/03/04 07:14:27;;;;;;;8.07;3.28;;;5.00;52.40;;;3.20;55.23;101968.63;8467941;27;20121;-80
2022/03/04 07:18:49;;;;;;;5.57;3.33;;;5.10;52.50;;;3.44;55.48;102009.81;8495746;27;20050;-81
2022/03/04 07:23:10;;;;;;;5.45;2.80;;;5.20;52.60;;;3.44;55.27;101990.88;8449582;27;20133;-81
2022/03/04 07:27:34;;;;;;;4.43;2.33;;;5.10;52.50;;;3.43;55.24;102002.06;8479701;27;20475;-81
2022/03/04 07:31:56;;;;;;;3.30;2.20;;;5.20;52.60;;;3.17;55.51;101943.69;8465563;27;20121;-80
2022/03/04 07:36:19;;;;;;;5.10;2.03;;;5.10;52.60;;;3.49;55.53;101995.16;8477647;27;20118;-82
2022/03/04 07:40:40;;;;;;;3.95;2.05;;;5.30;53.00;;;3.59;55.46;102001.13;8483004;27;20419;-82
2022/03/04 07:45:04;;;;;;;5.35;2.20;;;5.30;53.00;;;3.60;55.55;102000.25;8454544;27;20380;-82
2022/03/04 07:49:25;;;;;;;2.47;1.50;;;5.40;52.90;;;3.16;55.56;101920.47;8474315;27;20519;-82
2022/03/04 07:53:47;;;;;;;2.40;2.00;;;5.50;52.90;;;3.49;55.44;101983.97;8453602;27;20118;-82
2022/03/04 07:58:09;;;;;;;4.35;2.30;;;5.50;53.40;;;3.75;55.73;102022.56;8462536;28;20154;-81
2022/03/04 08:02:31;;;;;;;3.15;1.98;;;5.60;53.10;;;3.83;55.90;102038.84;8492682;28;20126;-79
2022/03/04 08:06:53;;;;;;;2.35;1.70;;;5.50;53.20;;;3.85;55.52;102039.72;8477760;27;20451;-79
2022/03/04 08:11:15;;;;;;;2.97;1.60;;;5.60;53.20;;;3.92;55.77;102049.16;8485736;27;20126;-81
2022/03/04 08:15:37;;;;;;;4.90;1.55;;;5.60;53.20;;;3.88;55.97;102046.59;8495175;27;20126;-81
2022/03/04 08:19:59;;;;;;;4.15;2.20;;;5.70;53.10;;;3.94;56.04;102062.94;8488684;27;20094;-81
2022/03/04 08:24:21;;;;;;;3.72;1.50;;;5.70;53.00;;;3.62;55.60;101990.78;8471703;28;20114;-81
2022/03/04 08:28:42;;;;;;;1.70;1.35;;;5.60;53.00;;;3.92;55.55;102040.56;8473372;28;20130;-81
2022/03/04 08:33:04;;;;;;;1.85;1.38;;;5.70;53.10;;;3.99;55.47;102040.47;8481751;27;20117;-80
2022/03/04 08:37:27;;;;;;;1.65;1.27;;;6.20;53.40;;;4.04;55.73;102052.53;8474170;27;20142;-81
2022/03/04 08:41:49;;;;;;;1.90;1.33;;;6.00;53.20;;;4.23;55.80;102079.97;8476698;27;20687;-80
2022/03/04 08:46:14;;;;;;;1.80;1.23;;;5.70;53.00;;;3.69;55.62;101989.88;8474297;28;20031;-81
2022/03/04 08:50:35;;;;;;;5.00;1.30;;;6.00;52.80;;;3.90;56.00;102019.88;8480930;27;20038;-80
2022/03/04 08:54:57;;;;;;;2.70;1.02;;;6.00;52.70;;;4.10;55.69;102047.31;8464649;28;20138;-80
2022/03/04 08:59:19;;;;;;;1.98;1.00;;;6.10;52.60;;;3.90;55.53;101993.19;8484006;27;20035;-80
2022/03/04 09:03:41;;;;;;;3.53;0.90;;;6.30;52.50;;;4.05;56.23;102028.38;8510067;27;20554;-80
2022/03/04 09:08:03;;;;;;;0.93;0.82;;;6.20;52.20;;;4.31;55.83;102062.66;8479228;27;20122;-80
2022/03/04 09:12:25;;;;;;;1.85;1.00;;;6.20;52.10;;;3.64;55.56;101946.84;8474531;27;20125;-80
2022/03/04 09:16:47;;;;;;;1.98;1.27;;;6.20;52.10;;;4.46;56.05;102078.94;8486725;27;20142;-80
2022/03/04 09:21:08;;;;;;;1.38;0.95;;;6.20;52.10;;;3.85;55.54;101988.03;8459882;27;20122;-80
2022/03/04 09:25:31;;;;;;;2.72;1.20;;;6.10;52.00;;;4.15;55.96;102033.47;8489116;27;20030;-80
2022/03/04 09:29:53;;;;;;;2.03;1.45;;;6.30;52.10;;;4.53;55.23;102088.34;8488827;27;20122;-80
2022/03/04 09:34:15;;;;;;;3.10;1.23;;;6.30;51.90;;;4.57;55.73;102097.81;8475412;27;20117;-80
2022/03/04 09:38:36;;;;;;;1.25;1.08;;;6.30;51.90;;;4.22;55.98;102032.56;8474356;27;20119;-80
2022/03/04 09:42:59;;;;;;;2.35;1.20;;;6.60;51.90;;;4.44;55.31;102064.28;8453829;27;20122;-80
2022/03/04 09:47:23;;;;;;;1.52;1.27;;;6.40;51.70;;;4.31;55.52;102034.22;8457468;27;20122;-80
2022/03/04 09:51:45;;;;;;;2.17;1.30;;;6.30;51.80;;;4.59;55.80;102072.78;8480342;27;20045;-80
2022/03/04 09:56:07;;;;;;;2.88;1.38;;;6.40;51.80;;;4.18;55.64;102005.00;8452979;27;20315;-80
2022/03/04 10:00:30;;;;;;;2.17;1.30;;;6.50;51.50;;;4.59;55.69;102073.66;8463406;27;20039;-80
2022/03/04 10:05:00;;;;;;;1.77;1.40;;;6.40;51.60;;;4.77;55.53;102085.56;8458047;27;20041;-80
2022/03/04 10:09:43;;;;;;;1.73;1.00;;;6.60;51.70;;;4.82;55.47;102088.13;8457355;27;20712;-80
2022/03/04 10:14:13;;;;;;;4.57;1.25;;;6.60;51.50;;;4.66;55.74;102059.78;8460042;27;20043;-79
2022/03/04 10:18:35;;;;;;;2.08;1.58;;;6.60;51.30;;;4.78;55.38;102065.72;8433768;27;20039;-79
2022/03/04 10:23:17;;;;;;;1.73;1.30;;;6.60;51.30;;;4.80;55.36;102070.00;8463473;27;21011;-79
2022/03/04 10:27:39;;;;;;;3.03;1.35;;;6.60;51.20;;;4.96;55.41;102083.66;8457076;27;20038;-78
2022/03/04 10:32:19;;;;;;;1.92;1.23;;;6.70;51.20;;;4.56;55.55;102016.75;8461994;27;20038;-78
2022/03/04 10:36:55;;;;;;;1.48;0.90;;;6.70;51.10;;;4.92;55.21;102066.44;8471423;27;20049;-79
2022/03/04 10:41:29;;;;;;;1.10;0.90;;;6.80;51.10;;;5.08;55.04;102091.31;8475368;27;20678;-79
2022/03/04 10:46:05;;;;;;;2.58;1.77;;;6.80;51.00;;;5.08;55.53;102087.88;8470900;27;20100;-78
2022/03/04 10:50:38;;;;;;;3.27;1.00;;;6.80;51.00;;;5.07;55.29;102081.81;8473075;27;20042;-78
2022/03/04 10:55:00;;;;;;;1.77;1.00;;;6.80;51.00;;;5.14;55.61;102085.22;8457863;27;20277;-78
2022/03/04 10:59:23;;;;;;;2.72;1.50;;;6.70;51.00;;;5.03;55.21;102068.94;8476046;27;20035;-78
2022/03/04 11:03:45;;;;;;;3.05;1.10;;;6.90;51.10;;;5.07;54.97;102070.59;8443247;27;20031;-78
2022/03/04 11:08:09;;;;;;;3.13;1.17;;;6.90;51.20;;;5.10;55.06;102073.16;8459381;27;20076;-78
2022/03/04 11:12:34;;;;;;;1.55;1.08;;;6.90;51.20;;;5.03;55.24;102056.00;8472870;27;20035;-78
2022/03/04 11:16:56;;;;;;;3.70;1.60;;;6.90;51.10;;;5.18;55.33;102078.25;8460755;27;20449;-78
2022/03/04 11:21:18;;;;;;;2.83;1.15;;;6.80;51.10;;;5.19;55.20;102075.66;8455541;27;20285;-77
2022/03/04 11:25:44;;;;;;;1.58;1.10;;;6.90;51.10;;;5.15;55.30;102063.59;8458568;27;20039;-78
2022/03/04 11:30:07;;;;;;;5.07;1.92;;;7.00;51.00;;;5.22;55.26;102073.03;8456307;27;20045;-78
2022/03/04 11:34:39;;;;;;;2.28;1.08;;;7.00;50.90;;;5.32;55.22;102086.75;8458924;27;20046;-78
2022/03/04 11:39:13;;;;;;;3.25;1.17;;;7.00;50.80;;;5.26;55.13;102074.69;8485598;27;20035;-78
2022/03/04 11:44:13;;;;;;;1.38;1.15;;;7.10;50.20;;;5.28;55.13;102080.72;8472934;27;20106;-78
2022/03/04 11:48:35;;;;;;;1.23;0.90;;;7.10;50.20;;;5.25;55.36;102060.03;8462458;27;20515;-78
2022/03/04 11:53:12;;;;;;;1.25;1.10;;;7.20;50.10;;;5.42;55.09;102080.56;8493600;27;20121;-78
2022/03/04 11:57:41;;;;;;;0.90;0.90;;;7.10;50.00;;;5.38;54.92;102080.63;8464507;27;20114;-78
2022/03/04 12:02:04;;;;;;;2.78;0.80;;;7.10;49.90;;;5.40;54.65;102073.69;8451787;27;20037;-78
2022/03/04 12:06:26;;;;;;;0.93;0.90;;;7.20;50.10;;;5.41;55.00;102075.41;8483478;27;20114;-80
2022/03/04 12:10:52;;;;;;;1.35;0.70;;;7.20;49.90;;;5.54;55.17;102089.94;8466325;28;20398;-78
2022/03/04 12:15:17;;;;;;;1.50;1.08;;;7.20;49.80;;;5.60;54.98;102092.44;8462464;27;20126;-78
2022/03/04 12:19:39;;;;;;;1.00;0.60;;;7.30;49.70;;;5.53;54.31;102059.69;8490838;27;20045;-78
2022/03/04 12:24:06;;;;;;;1.05;0.73;;;7.30;49.90;;;5.67;54.91;102070.75;8492058;27;20130;-78
2022/03/04 12:28:44;;;;;;;1.80;0.93;;;7.40;49.80;;;5.76;55.12;102081.00;8493568;27;20105;-79
2022/03/04 12:33:05;;;;;;;1.80;0.80;;;7.30;49.50;;;5.75;54.42;102062.88;8461765;28;20121;-78
2022/03/04 12:37:28;;;;;;;1.50;0.77;;;7.60;49.60;;;5.89;54.73;102073.91;8464413;27;20443;-78
2022/03/04 12:41:56;;;;;;;1.35;0.95;;;7.60;49.50;;;5.93;54.88;102070.41;8476271;27;20058;-78
2022/03/04 12:46:24;;;;;;;1.50;0.80;;;7.50;48.90;;;5.76;54.44;102026.56;8490485;27;20510;-78
2022/03/04 12:50:46;;;;;;;1.20;1.13;;;7.70;49.10;;;5.99;54.78;102053.91;8493003;27;20034;-78
2022/03/04 12:55:11;;;;;;;1.35;1.02;;;7.70;49.10;;;6.11;54.64;102069.31;8490079;27;20118;-78
2022/03/04 12:59:49;;;;;;;2.20;1.42;;;7.80;48.70;;;6.00;54.09;102040.09;8502985;27;20228;-78
2022/03/04 13:04:11;;;;;;;1.10;0.90;;;7.80;49.10;;;6.06;54.46;102040.00;8454459;27;20118;-77
2022/03/04 13:08:33;;;;;;;2.10;1.00;;;7.80;49.10;;;6.11;53.84;102045.13;8498460;27;20368;-77
2022/03/04 13:12:58;;;;;;;1.40;1.08;;;7.90;48.90;;;6.18;54.48;102052.78;8494274;27;20122;-78
2022/03/04 13:17:20;;;;;;;2.00;1.00;;;7.90;48.70;;;6.22;54.09;102056.19;8492952;27;20138;-78
2022/03/04 13:22:01;;;;;;;2.70;0.90;;;8.00;48.80;;;6.30;54.17;102066.44;8476627;27;20035;-78
2022/03/04 13:26:23;;;;;;;1.00;1.00;;;7.80;48.60;;;6.19;54.00;102041.53;8508410;27;20106;-78
2022/03/04 13:30:49;;;;;;;2.20;1.05;;;8.00;48.50;;;6.33;53.87;102050.81;8470576;27;20570;-78
2022/03/04 13:35:11;;;;;;;2.10;0.90;;;8.10;48.50;;;6.31;54.23;102048.25;8481622;27;20118;-78
2022/03/04 13:39:35;;;;;;;1.58;1.10;;;8.10;48.40;;;6.34;53.72;102050.78;8493190;27;20384;-78
2022/03/04 13:44:14;;;;;;;1.00;0.85;;;8.10;48.30;;;6.35;53.73;102046.47;8477504;27;20037;-78
2022/03/04 13:48:36;;;;;;;2.22;1.10;;;8.10;48.40;;;6.40;53.75;102052.44;8469349;27;20114;-78
2022/03/04 13:53:01;;;;;;;2.13;1.40;;;8.10;48.40;;;6.51;53.81;102070.41;8498571;27;20556;-78
2022/03/04 13:57:38;;;;;;;2.95;1.55;;;8.20;48.40;;;6.48;54.06;102062.66;8475264;27;20050;-78
2022/03/04 14:02:06;;;;;;;1.13;0.80;;;8.20;48.50;;;6.38;53.42;102038.63;8491863;27;20037;-78
2022/03/04 14:06:29;;;;;;;1.95;0.80;;;8.20;48.30;;;6.50;53.28;102056.56;8494692;27;20493;-78
2022/03/04 14:10:51;;;;;;;2.22;1.00;;;8.30;48.40;;;6.52;53.84;102049.63;8495263;27;20122;-78
2022/03/04 14:15:13;;;;;;;4.28;0.95;;;8.30;48.40;;;6.49;54.19;102043.66;8489543;27;20121;-78
2022/03/04 14:19:34;;;;;;;0.80;0.80;;;8.20;48.20;;;6.56;53.28;102050.41;8483741;27;20126;-78
2022/03/04 14:23:56;;;;;;;0.93;0.80;;;8.30;48.30;;;6.50;53.97;102046.19;8508530;27;20106;-78
2022/03/04 14:28:18;;;;;;;0.93;0.93;;;8.30;48.40;;;6.60;53.72;102050.34;8474259;27;20110;-78
2022/03/04 14:32:40;;;;;;;0.93;0.88;;;8.20;48.10;;;6.58;53.64;102043.47;8471257;27;20114;-78
2022/03/04 14:37:02;;;;;;;1.52;1.13;;;8.30;48.30;;;6.59;53.57;102047.81;8468130;27;20126;-78
2022/03/04 14:41:24;;;;;;;2.45;1.05;;;8.30;48.10;;;6.38;53.84;102015.28;8477175;27;20034;-78
2022/03/04 14:45:46;;;;;;;1.33;0.88;;;8.30;48.20;;;6.50;53.39;102045.34;8502042;27;20102;-78
2022/03/04 14:50:09;;;;;;;4.63;1.42;;;8.30;48.20;;;6.62;53.43;102066.75;8470232;27;20111;-78
2022/03/04 14:54:32;;;;;;;0.90;0.90;;;8.30;48.10;;;6.60;53.11;102062.47;8492789;27;20507;-78
2022/03/04 14:58:54;;;;;;;1.42;1.00;;;8.30;48.00;;;6.60;53.25;102062.47;8484461;27;20129;-78
2022/03/04 15:03:17;;;;;;;2.30;1.40;;;8.60;48.10;;;6.49;53.17;102044.50;8487809;27;20135;-78
2022/03/04 15:07:40;;;;;;;2.13;1.10;;;8.30;47.90;;;6.61;53.27;102071.97;8472590;27;20114;-78
2022/03/04 15:12:03;;;;;;;1.35;1.00;;;8.30;47.80;;;6.51;52.84;102047.94;8492681;27;20590;-78
2022/03/04 15:16:25;;;;;;;1.40;1.30;;;8.30;47.80;;;6.59;53.46;102064.22;8491003;27;20118;-78
2022/03/04 15:20:47;;;;;;;1.90;1.10;;;8.30;48.00;;;6.38;53.39;102036.03;8453974;27;20040;-84
2022/03/04 15:25:09;;;;;;;1.48;1.13;;;8.30;48.00;;;6.54;53.43;102062.59;8471888;27;20113;-78
2022/03/04 15:29:32;;;;;;;2.17;1.98;;;8.30;47.70;;;6.56;53.02;102077.25;8485111;27;20121;-78
2022/03/04 15:33:54;;;;;;;1.88;1.40;;;8.30;47.80;;;6.57;53.33;102065.13;8493132;27;20126;-78
2022/03/04 15:38:15;;;;;;;2.90;1.40;;;8.30;47.70;;;6.48;53.40;102052.28;8483299;27;20118;-78
2022/03/04 15:42:40;;;;;;;1.13;1.02;;;8.30;47.90;;;6.57;52.61;102072.91;8480016;27;20102;-78
2022/03/04 15:47:02;;;;;;;1.05;0.80;;;8.30;47.90;;;6.52;53.19;102065.19;8491646;27;20583;-78
2022/03/04 15:51:24;;;;;;;1.50;0.82;;;8.30;47.90;;;6.55;53.36;102061.69;8487944;27;20110;-78
2022/03/04 15:55:46;;;;;;;1.02;0.95;;;8.10;48.00;;;6.64;53.48;102069.31;8489029;27;20041;-78
2022/03/04 16:00:08;;;;;;;1.05;0.95;;;8.20;47.90;;;6.65;53.30;102071.03;8468241;28;20110;-78
2022/03/04 16:04:30;;;;;;;2.40;1.27;;;8.30;47.80;;;6.64;52.77;102069.31;8484319;27;20407;-78
2022/03/04 16:08:52;;;;;;;2.13;1.00;;;8.30;47.90;;;6.52;52.98;102049.63;8471740;27;20102;-77
2022/03/04 16:13:20;;;;;;;3.63;0.90;;;8.20;47.80;;;6.57;52.67;102059.94;8484249;27;20114;-78
2022/03/04 16:17:41;;;;;;;;;;;8.20;47.90;;;6.11;52.99;101985.47;8479748;27;20448;-78
2022/03/04 16:22:03;;;;;;;;;;;8.30;48.00;;;6.61;53.03;102078.00;8506423;27;20364;-78
2022/03/04 16:26:25;;;;;;;;;;;8.30;48.20;;;6.55;53.18;102064.28;8498660;27;19986;-78
2022/03/04 16:30:50;;;;;;;;;;;8.40;48.30;;;6.59;53.20;102072.00;8501793;27;20447;-78
2022/03/04 16:35:12;;;;;;;;;;;8.60;48.40;;;6.51;53.52;102066.09;8453878;27;19996;-78
2022/03/04 16:39:34;;;;;;;;;;;8.40;48.40;;;6.45;53.42;102058.38;8481718;27;19912;-78
2022/03/04 16:43:56;;;;;;;;;;;8.40;48.40;;;6.58;53.62;102080.66;8487111;27;19916;-79
2022/03/04 16:48:18;;;;;;;;;;;8.40;48.70;;;6.52;53.20;102064.34;8470360;27;19919;-81
2022/03/04 16:52:40;;;;;;;;;;;8.40;48.30;;;6.52;53.21;102067.78;8474262;27;19915;-78
2022/03/04 16:57:04;;;;;;;;;;;8.40;48.30;;;6.53;53.37;102066.03;8470132;27;20339;-77
2022/03/04 17:01:26;;;;;;;;;;;8.50;48.40;;;6.59;53.88;102082.38;8472429;27;19926;-78
2022/03/04 17:05:48;;;;;;;;;;;8.30;48.40;;;6.51;53.16;102063.50;8465975;27;19911;-78
2022/03/04 17:10:10;;;;;;;;;;;8.30;48.50;;;6.59;53.58;102082.38;8480982;27;20290;-78
2022/03/04 17:14:32;;;;;;;;;;;8.50;48.50;;;6.52;53.20;102066.94;8467103;27;20522;-77
2022/03/04 17:18:53;;;;;;;;;;;8.50;48.50;;;6.39;53.80;102048.13;8491748;27;19923;-79
2022/03/04 17:23:17;;;;;;;;;;;8.40;48.50;;;6.56;53.76;102077.25;8502759;27;19919;-78
2022/03/04 17:27:39;;;;;;;;;;;8.40;48.60;;;6.47;53.17;102067.00;8507887;27;19915;-78
2022/03/04 17:32:00;;;;;;;;;;;8.40;48.60;;;6.33;53.28;102053.41;8480850;27;19915;-78
2022/03/04 17:36:22;;;;;;;;;;;8.40;48.60;;;6.46;53.56;102080.03;8475332;27;19926;-77
2022/03/04 17:40:43;;;;;;;;;;;8.40;48.50;;;6.41;53.85;102083.53;8489235;27;20269;-78
2022/03/04 17:45:06;;;;;;;;;;;8.30;48.40;;;6.34;53.25;102068.09;8469485;27;19940;-78
2022/03/04 17:49:28;;;;;;;;;;;8.30;48.30;;;6.28;53.27;102082.00;8485610;27;19915;-79
2022/03/04 17:53:49;;;;;;;;;;;8.20;48.30;;;6.24;53.05;102089.84;8485624;27;19915;-77
2022/03/04 17:58:11;;;;;;;;;;;8.10;48.30;;;6.16;53.42;102088.25;8480289;27;19931;-79
2022/03/04 18:02:35;;;;;;;;;;;8.00;48.30;;;6.13;53.21;102098.69;8452882;27;19927;-79
2022/03/04 18:07:00;;;;;;;;;;;8.00;48.30;;;6.02;53.04;102086.72;8474611;27;20344;-78
2022/03/04 18:11:21;;;;;;;;;;;7.90;48.30;;;5.90;53.11;102083.41;8473466;27;19915;-77
2022/03/04 18:15:43;;;;;;;;;;;7.80;48.40;;;5.91;53.60;102094.63;8489183;27;19919;-79
2022/03/04 18:20:05;;;;;;;;;;;7.80;48.50;;;5.76;53.28;102083.59;8438874;27;19911;-77
2022/03/04 18:24:27;;;;;;;;;;;7.70;48.40;;;5.76;52.99;102106.91;8484040;27;19919;-78
2022/03/04 18:28:48;;;;;;;;;;;7.60;48.40;;;5.49;53.35;102079.63;8472154;27;19921;-77
2022/03/04 18:33:10;;;;;;;;;;;7.70;48.40;;;5.47;53.24;102086.53;8484548;27;19927;-77
2022/03/04 18:37:31;;;;;;;;;;;7.50;48.40;;;5.55;53.55;102107.19;8458930;27;19921;-77
2022/03/04 18:41:53;;;;;;;;;;;7.40;48.80;;;5.35;53.56;102096.19;8469407;27;19930;-77
2022/03/04 18:46:15;;;;;;;;;;;7.20;48.30;;;5.32;53.61;102113.50;8469318;27;19915;-79